createdAt,value
2019-01-25T00:02:26.769Z,-0.62
2019-01-25T00:04:55.135Z,-0.73
2019-01-25T00:07:23.459Z,-0.75
2019-01-25T00:09:58.474Z,-0.72
2019-01-25T00:12:22.226Z,-0.70
2019-01-25T00:14:50.691Z,-0.77
2019-01-25T00:17:19.065Z,-0.88
2019-01-25T00:19:47.390Z,-0.73
2019-01-25T00:22:15.748Z,-0.78
2019-01-25T00:24:44.083Z,-0.76
2019-01-25T00:27:12.735Z,-0.76
2019-01-25T00:29:41.053Z,-0.74
2019-01-25T00:32:09.655Z,-0.78
2019-01-25T00:34:37.970Z,-0.95
2019-01-25T00:37:06.332Z,-0.98
2019-01-25T00:39:34.684Z,-1.02
2019-01-25T00:42:03.049Z,-0.94
2019-01-25T00:44:31.390Z,-0.94
2019-01-25T00:46:59.751Z,-0.96
2019-01-25T00:49:29.056Z,-0.94
2019-01-25T00:51:57.421Z,-1.06
2019-01-25T00:54:25.756Z,-1.05
2019-01-25T00:56:54.113Z,-0.86
2019-01-25T00:59:22.528Z,-0.78
2019-01-25T01:01:51.190Z,-0.85
2019-01-25T01:04:19.497Z,-0.78
2019-01-25T01:06:48.141Z,-0.69
2019-01-25T01:09:16.553Z,-0.70
2019-01-25T01:11:44.956Z,-0.87
2019-01-25T01:14:13.310Z,-0.74
2019-01-25T01:16:41.659Z,-0.76
2019-01-25T01:19:10.799Z,-0.81
2019-01-25T01:21:39.118Z,-1.03
2019-01-25T01:24:07.551Z,-1.11
2019-01-25T01:26:36.848Z,-0.92
2019-01-25T01:29:05.208Z,-0.74
2019-01-25T01:31:33.601Z,-0.70
2019-01-25T01:34:02.062Z,-0.71
2019-01-25T01:36:30.381Z,-0.84
2019-01-25T01:38:58.785Z,-0.88
2019-01-25T01:41:27.133Z,-0.73
2019-01-25T01:43:55.486Z,-0.67
2019-01-25T01:46:23.850Z,-0.97
2019-01-25T01:48:52.197Z,-0.80
2019-01-25T01:51:20.656Z,-0.99
2019-01-25T01:53:49.002Z,-0.85
2019-01-25T01:56:17.350Z,-0.77
2019-01-25T01:58:45.721Z,-0.94
2019-01-25T02:01:14.090Z,-0.89
2019-01-25T02:03:42.528Z,-0.83
2019-01-25T02:06:11.137Z,-0.79
2019-01-25T02:08:39.787Z,-0.92
2019-01-25T02:11:08.350Z,-0.98
2019-01-25T02:13:36.917Z,-0.86
2019-01-25T02:16:05.260Z,-0.95
2019-01-25T02:18:33.609Z,-1.21
2019-01-25T02:21:02.098Z,-0.92
2019-01-25T02:23:30.543Z,-0.80
2019-01-25T02:25:59.566Z,-0.68
2019-01-25T02:28:28.125Z,-0.91
2019-01-25T02:30:56.446Z,-1.08
2019-01-25T02:33:25.661Z,-0.69
2019-01-25T02:35:54.007Z,-0.98
2019-01-25T02:38:22.369Z,-1.38
2019-01-25T02:40:50.796Z,-1.59
2019-01-25T02:43:19.172Z,-1.65
2019-01-25T02:45:47.590Z,-1.66
2019-01-25T02:48:16.079Z,-1.75
2019-01-25T02:50:44.463Z,-1.78
2019-01-25T02:53:13.208Z,-1.85
2019-01-25T02:55:41.549Z,-1.61
2019-01-25T02:58:10.306Z,-1.61
2019-01-25T03:00:38.713Z,-1.60
2019-01-25T03:03:07.030Z,-1.42
2019-01-25T03:05:35.404Z,-1.32
2019-01-25T03:08:03.794Z,-1.44
2019-01-25T03:10:32.306Z,-1.16
2019-01-25T03:13:00.664Z,-0.95
2019-01-25T03:15:29.076Z,-0.79
2019-01-25T03:17:57.437Z,-0.90
2019-01-25T03:20:26.768Z,-0.72
2019-01-25T03:22:55.119Z,-0.64
2019-01-25T03:25:25.461Z,-0.51
2019-01-25T03:27:53.789Z,-0.61
2019-01-25T03:30:23.050Z,-0.61
2019-01-25T03:32:51.616Z,-0.62
2019-01-25T03:35:20.930Z,-0.44
2019-01-25T03:37:49.522Z,-0.44
2019-01-25T03:40:20.801Z,-0.48
2019-01-25T03:42:49.258Z,-0.40
2019-01-25T03:45:17.996Z,-0.43
2019-01-25T03:47:46.501Z,-0.35
2019-01-25T03:50:19.605Z,-0.38
2019-01-25T03:52:48.718Z,-0.33
2019-01-25T03:55:17.184Z,-0.33
2019-01-25T03:57:45.856Z,-0.44
2019-01-25T04:00:18.326Z,-0.50
2019-01-25T04:02:46.888Z,-0.50
2019-01-25T04:05:15.984Z,-0.39
2019-01-25T04:07:44.438Z,-0.35
2019-01-25T04:10:16.125Z,-0.32
2019-01-25T04:12:44.551Z,-0.30
2019-01-25T04:15:16.134Z,-0.36
2019-01-25T04:17:44.538Z,-0.31
2019-01-25T04:20:15.550Z,-0.26
2019-01-25T04:22:43.945Z,-0.24
2019-01-25T04:25:15.969Z,-0.15
2019-01-25T04:27:44.359Z,-0.17
2019-01-25T04:30:16.078Z,-0.17
2019-01-25T04:32:44.576Z,-0.59
2019-01-25T04:35:13.613Z,-0.68
2019-01-25T04:37:42.019Z,-0.59
2019-01-25T04:40:12.611Z,-0.40
2019-01-25T04:42:41.012Z,-0.49
2019-01-25T04:45:14.069Z,-0.43
2019-01-25T04:47:42.477Z,-0.37
2019-01-25T04:50:13.458Z,-0.43
2019-01-25T04:52:41.883Z,-0.39
2019-01-25T04:55:15.331Z,-0.35
2019-01-25T04:57:43.746Z,-0.36
2019-01-25T05:00:14.604Z,-0.30
2019-01-25T05:02:48.869Z,-0.35
2019-01-25T05:05:17.195Z,-0.28
2019-01-25T05:07:45.631Z,-0.29
2019-01-25T05:10:14.572Z,-0.32
2019-01-25T05:15:56.731Z,-0.47
2019-01-25T05:18:25.094Z,-0.43
2019-01-25T05:20:53.436Z,-0.44
2019-01-25T05:23:21.796Z,-0.40
2019-01-25T05:25:50.215Z,-0.45
2019-01-25T05:28:18.797Z,-0.60
2019-01-25T05:30:52.075Z,-0.48
2019-01-25T05:33:20.618Z,-0.52
2019-01-25T05:35:48.984Z,-0.64
2019-01-25T05:38:17.732Z,-0.77
2019-01-25T05:40:46.074Z,-0.84
2019-01-25T05:43:14.491Z,-0.87
2019-01-25T05:45:43.690Z,-0.82
2019-01-25T05:48:12.816Z,-0.88
2019-01-25T05:50:41.278Z,-0.81
2019-01-25T05:53:10.211Z,-0.79
2019-01-25T05:55:38.520Z,-0.84
2019-01-25T05:58:08.433Z,-0.79
2019-01-25T06:00:39.103Z,-0.96
2019-01-25T06:03:09.322Z,-0.92
2019-01-25T06:05:37.810Z,-0.96
2019-01-25T06:08:13.898Z,-1.00
2019-01-25T06:10:42.250Z,-0.80
2019-01-25T06:13:11.041Z,-0.65
2019-01-25T06:15:39.373Z,-0.76
2019-01-25T06:18:07.736Z,-0.83
2019-01-25T06:20:36.071Z,-0.81
2019-01-25T06:23:04.401Z,-0.69
2019-01-25T06:25:32.761Z,-0.79
2019-01-25T06:28:04.838Z,-0.59
2019-01-25T06:30:33.192Z,-0.66
2019-01-25T06:39:00.281Z,-0.75
2019-01-25T06:41:28.618Z,-0.79
2019-01-25T06:43:57.006Z,-0.74
2019-01-25T06:46:25.335Z,-0.77
2019-01-25T06:48:53.770Z,-0.61
2019-01-25T06:51:22.101Z,-0.89
2019-01-25T06:53:50.450Z,-0.96
2019-01-25T06:56:18.828Z,-0.80
2019-01-25T06:58:49.649Z,-0.89
2019-01-25T07:01:19.391Z,-1.09
2019-01-25T07:03:47.737Z,-0.92
2019-01-25T07:06:16.146Z,-0.98
2019-01-25T07:08:44.543Z,-0.82
2019-01-25T07:11:12.953Z,-0.79
2019-01-25T07:13:41.298Z,-1.04
2019-01-25T07:16:09.705Z,-0.82
2019-01-25T07:18:38.061Z,-1.05
2019-01-25T07:21:06.735Z,-1.05
2019-01-25T07:23:35.049Z,-1.00
2019-01-25T07:26:03.637Z,-1.00
2019-01-25T07:28:32.011Z,-0.82
2019-01-25T07:31:01.133Z,-0.93
2019-01-25T07:33:29.568Z,-0.92
2019-01-25T07:35:58.073Z,-0.90
2019-01-25T07:38:26.397Z,-0.96
2019-01-25T07:40:54.874Z,-0.89
2019-01-25T07:43:23.222Z,-0.64
2019-01-25T07:45:51.666Z,-0.55
2019-01-25T07:48:20.286Z,-0.56
2019-01-25T07:50:49.021Z,-0.61
2019-01-25T07:53:17.479Z,-0.45
2019-01-25T07:55:45.826Z,-0.45
2019-01-25T07:58:14.196Z,-0.41
2019-01-25T08:00:42.542Z,-0.27
2019-01-25T08:03:10.877Z,-0.25
2019-01-25T08:05:39.510Z,-0.35
2019-01-25T08:08:08.561Z,-0.31
2019-01-25T08:10:37.913Z,-0.23
2019-01-25T08:13:06.572Z,-0.41
2019-01-25T08:15:35.044Z,-0.68
2019-01-25T08:18:03.533Z,1.13
2019-01-25T08:20:31.979Z,1.49
2019-01-25T08:23:00.423Z,1.91
2019-01-25T08:25:28.889Z,2.17
2019-01-25T08:27:57.381Z,2.12
2019-01-25T08:30:25.945Z,2.50
2019-01-25T08:32:54.460Z,2.22
2019-01-25T08:35:23.107Z,1.74
2019-01-25T08:37:51.690Z,1.05
2019-01-25T08:40:20.053Z,0.35
2019-01-25T08:42:48.578Z,-0.09
2019-01-25T08:45:18.121Z,-0.18
2019-01-25T08:47:46.738Z,0.13
2019-01-25T08:50:19.137Z,0.21
2019-01-25T08:52:47.681Z,-0.11
2019-01-25T08:55:16.324Z,-0.20
2019-01-25T08:57:45.035Z,0.00
2019-01-25T09:00:15.001Z,0.11
2019-01-25T09:02:43.426Z,0.22
2019-01-25T09:05:12.285Z,-0.05
2019-01-25T09:07:40.945Z,0.12
2019-01-25T09:10:11.789Z,0.08
2019-01-25T09:12:40.208Z,0.24
2019-01-25T09:15:12.375Z,0.36
2019-01-25T09:17:40.800Z,0.49
2019-01-25T09:20:14.591Z,0.32
2019-01-25T09:22:41.485Z,0.37
2019-01-25T09:25:10.486Z,0.22
2019-01-25T09:27:38.841Z,0.25
2019-01-25T09:30:11.927Z,0.43
2019-01-25T09:32:40.256Z,0.36
2019-01-25T09:35:10.096Z,0.29
2019-01-25T09:37:38.581Z,0.42
2019-01-25T09:40:09.106Z,0.63
2019-01-25T09:42:37.408Z,0.59
2019-01-25T09:45:10.392Z,0.63
2019-01-25T09:47:38.717Z,0.59
2019-01-25T09:50:11.621Z,0.42
2019-01-25T09:52:39.955Z,0.75
2019-01-25T09:55:11.629Z,0.87
2019-01-25T09:57:40.196Z,1.03
2019-01-25T10:00:14.157Z,0.83
2019-01-25T10:02:42.510Z,0.68
2019-01-25T10:05:11.359Z,0.80
2019-01-25T10:07:39.705Z,1.03
2019-01-25T10:10:09.715Z,0.94
2019-01-25T10:12:43.242Z,1.02
2019-01-25T10:15:14.281Z,1.30
2019-01-25T10:17:42.645Z,1.09
2019-01-25T10:20:11.717Z,0.99
2019-01-25T10:22:40.136Z,1.29
2019-01-25T10:25:10.733Z,1.09
2019-01-25T10:27:39.100Z,1.36
2019-01-25T10:30:12.693Z,1.47
2019-01-25T10:32:41.151Z,1.40
2019-01-25T10:35:11.636Z,1.41
2019-01-25T10:37:39.983Z,1.27
2019-01-25T10:40:12.846Z,1.43
2019-01-25T10:42:45.635Z,1.38
2019-01-25T10:45:14.811Z,1.48
2019-01-25T10:47:43.129Z,1.34
2019-01-25T10:50:11.666Z,1.55
2019-01-25T10:52:39.989Z,1.37
2019-01-25T10:55:11.025Z,1.09
2019-01-25T10:57:39.672Z,1.07
2019-01-25T11:00:12.599Z,1.11
2019-01-25T11:02:41.070Z,1.36
2019-01-25T11:05:14.400Z,1.18
2019-01-25T11:07:42.739Z,1.16
2019-01-25T11:10:11.215Z,1.40
2019-01-25T11:12:39.644Z,1.58
2019-01-25T11:15:09.954Z,1.52
2019-01-25T11:17:38.301Z,1.73
2019-01-25T11:20:11.710Z,1.76
2019-01-25T11:22:40.054Z,1.59
2019-01-25T11:25:11.762Z,1.33
2019-01-25T11:27:40.108Z,1.28
2019-01-25T11:30:11.285Z,1.47
2019-01-25T11:32:39.637Z,1.40
2019-01-25T11:35:08.481Z,1.51
2019-01-25T11:37:36.919Z,1.57
2019-01-25T11:40:09.987Z,1.73
2019-01-25T11:42:38.339Z,1.69
2019-01-25T11:45:10.236Z,1.71
2019-01-25T11:47:38.657Z,1.70
2019-01-25T11:50:11.563Z,1.93
2019-01-25T11:52:40.003Z,2.12
2019-01-25T11:55:09.728Z,1.61
2019-01-25T11:57:38.190Z,1.87
2019-01-25T12:00:13.556Z,1.73
2019-01-25T12:02:42.000Z,2.16
2019-01-25T12:05:11.806Z,2.29
2019-01-25T12:07:40.217Z,2.18
2019-01-25T12:10:12.748Z,2.31
2019-01-25T12:12:41.089Z,2.37
2019-01-25T12:15:11.200Z,2.76
2019-01-25T12:17:39.530Z,2.93
2019-01-25T12:20:10.800Z,3.13
2019-01-25T12:22:39.263Z,3.26
2019-01-25T12:25:10.366Z,3.09
2019-01-25T12:27:38.762Z,2.73
2019-01-25T12:30:13.563Z,2.21
2019-01-25T12:32:42.902Z,1.97
2019-01-25T12:35:12.534Z,2.15
2019-01-25T12:37:41.021Z,2.23
2019-01-25T12:40:12.673Z,2.53
2019-01-25T12:42:41.017Z,2.24
2019-01-25T12:45:13.065Z,2.69
2019-01-25T12:47:41.479Z,2.58
2019-01-25T12:50:16.206Z,2.48
2019-01-25T12:52:44.589Z,2.51
2019-01-25T12:55:13.053Z,2.34
2019-01-25T12:57:41.496Z,2.57
2019-01-25T13:00:14.297Z,2.25
2019-01-25T13:02:42.791Z,2.54
2019-01-25T13:05:14.853Z,2.08
2019-01-25T13:07:43.213Z,2.34
2019-01-25T13:10:14.914Z,2.20
2019-01-25T13:12:43.392Z,2.42
2019-01-25T13:15:12.937Z,2.06
2019-01-25T13:17:41.353Z,2.04
2019-01-25T13:20:14.710Z,2.08
2019-01-25T13:22:43.177Z,1.84
2019-01-25T13:25:11.839Z,2.14
2019-01-25T13:27:40.390Z,1.98
2019-01-25T13:30:11.234Z,2.13
2019-01-25T13:32:39.709Z,2.16
2019-01-25T13:35:10.024Z,2.12
2019-01-25T13:37:38.741Z,2.09
2019-01-25T13:40:10.544Z,2.36
2019-01-25T13:42:38.925Z,2.45
2019-01-25T13:45:10.703Z,2.56
2019-01-25T13:47:39.162Z,2.56
2019-01-25T13:50:11.590Z,2.36
2019-01-25T13:52:39.985Z,2.32
2019-01-25T13:55:09.918Z,2.04
2019-01-25T13:57:38.376Z,2.20
2019-01-25T14:00:11.290Z,2.16
2019-01-25T14:02:39.636Z,2.40
2019-01-25T14:05:09.685Z,2.51
2019-01-25T14:07:38.022Z,2.20
2019-01-25T14:10:11.062Z,2.39
2019-01-25T14:12:39.475Z,2.44
2019-01-25T14:15:09.241Z,2.45
2019-01-25T14:17:37.642Z,2.58
2019-01-25T14:20:12.645Z,2.63
2019-01-25T14:22:40.985Z,2.72
2019-01-25T14:25:10.577Z,2.42
2019-01-25T14:27:38.950Z,2.39
2019-01-25T14:30:13.415Z,2.51
2019-01-25T14:32:41.835Z,2.32
2019-01-25T14:35:10.682Z,2.36
2019-01-25T14:37:39.228Z,2.58
2019-01-25T14:40:08.396Z,2.42
2019-01-25T14:42:36.708Z,2.68
2019-01-25T14:45:08.109Z,2.54
2019-01-25T14:47:36.425Z,2.47
2019-01-25T14:50:10.869Z,2.52
2019-01-25T14:52:39.297Z,2.48
2019-01-25T14:55:08.069Z,2.59
2019-01-25T14:57:36.499Z,2.46
2019-01-25T15:00:07.800Z,2.30
2019-01-25T15:02:36.444Z,2.16
2019-01-25T15:05:10.717Z,2.24
2019-01-25T15:07:39.058Z,2.19
2019-01-25T15:10:11.765Z,2.23
2019-01-25T15:12:40.280Z,2.29
2019-01-25T15:15:10.526Z,2.44
2019-01-25T15:17:38.885Z,2.36
2019-01-25T15:20:10.566Z,2.29
2019-01-25T15:22:38.935Z,2.29
2019-01-25T15:25:07.890Z,2.21
2019-01-25T15:27:36.275Z,2.34
2019-01-25T15:30:08.085Z,2.30
2019-01-25T15:32:36.412Z,2.29
2019-01-25T15:35:08.487Z,2.39
2019-01-25T15:37:36.820Z,2.40
2019-01-25T15:40:09.097Z,2.41
2019-01-25T15:42:37.411Z,2.37
2019-01-25T15:45:09.829Z,2.18
2019-01-25T15:47:38.325Z,2.06
2019-01-25T15:50:13.040Z,2.03
2019-01-25T15:52:41.460Z,2.11
2019-01-25T15:55:10.533Z,2.14
2019-01-25T15:57:39.631Z,2.08
2019-01-25T16:00:10.352Z,1.89
2019-01-25T16:02:38.820Z,1.93
2019-01-25T16:05:08.548Z,1.88
2019-01-25T16:07:37.286Z,2.02
2019-01-25T16:10:09.636Z,1.72
2019-01-25T16:12:38.032Z,1.70
2019-01-25T16:15:09.266Z,1.76
2019-01-25T16:17:38.113Z,1.88
2019-01-25T16:20:10.131Z,2.02
2019-01-25T16:22:38.458Z,1.97
2019-01-25T16:25:10.781Z,1.94
2019-01-25T16:27:39.125Z,1.88
2019-01-25T16:30:11.595Z,1.93
2019-01-25T16:32:39.923Z,2.09
2019-01-25T16:35:09.681Z,2.21
2019-01-25T16:37:38.001Z,2.29
2019-01-25T16:40:08.935Z,2.20
2019-01-25T16:42:37.345Z,2.02
2019-01-25T16:45:10.726Z,2.18
2019-01-25T16:47:39.112Z,2.14
2019-01-25T16:50:08.728Z,2.10
2019-01-25T16:52:37.181Z,2.10
2019-01-25T16:55:08.334Z,2.18
2019-01-25T16:57:36.719Z,2.02
2019-01-25T17:00:10.977Z,2.20
2019-01-25T17:02:39.284Z,2.31
2019-01-25T17:05:09.257Z,2.21
2019-01-25T17:07:37.618Z,2.24
2019-01-25T17:10:09.533Z,2.21
2019-01-25T17:12:37.928Z,2.28
2019-01-25T17:15:09.696Z,2.08
2019-01-25T17:17:38.245Z,2.00
2019-01-25T17:20:17.222Z,2.06
2019-01-25T17:22:42.131Z,2.01
2019-01-25T17:25:12.000Z,2.21
2019-01-25T17:27:40.548Z,2.14
2019-01-25T17:30:15.076Z,2.19
2019-01-25T17:32:43.411Z,2.13
2019-01-25T17:35:12.569Z,2.08
2019-01-25T17:37:40.887Z,1.95
2019-01-25T17:40:13.536Z,2.03
2019-01-25T17:42:41.904Z,2.03
2019-01-25T17:45:11.663Z,1.97
2019-01-25T17:47:40.105Z,2.17
2019-01-25T17:50:12.638Z,2.20
2019-01-25T17:52:41.004Z,1.98
2019-01-25T17:55:13.353Z,2.07
2019-01-25T17:57:41.741Z,2.05
2019-01-25T18:00:14.494Z,2.07
2019-01-25T18:02:42.862Z,2.22
2019-01-25T18:05:12.250Z,2.07
2019-01-25T18:07:40.551Z,2.02
2019-01-25T18:10:14.664Z,2.01
2019-01-25T18:12:43.492Z,2.16
2019-01-25T18:15:15.249Z,2.14
2019-01-25T18:17:44.332Z,2.13
2019-01-25T18:20:18.539Z,2.02
2019-01-25T18:22:46.880Z,1.93
2019-01-25T18:25:18.699Z,1.87
2019-01-25T18:27:50.849Z,1.99
2019-01-25T18:30:23.195Z,2.01
2019-01-25T18:32:51.621Z,2.02
2019-01-25T18:35:20.033Z,2.09
2019-01-25T18:37:48.437Z,1.89
2019-01-25T18:40:16.891Z,1.96
2019-01-25T18:42:45.545Z,1.95
2019-01-25T18:45:14.154Z,1.78
2019-01-25T18:47:42.641Z,1.81
2019-01-25T18:50:13.268Z,1.90
2019-01-25T18:52:41.692Z,1.74
2019-01-25T18:55:14.036Z,1.81
2019-01-25T18:57:42.386Z,1.70
2019-01-25T19:00:15.616Z,1.71
2019-01-25T19:02:44.068Z,1.82
2019-01-25T19:05:13.261Z,1.84
2019-01-25T19:07:41.841Z,1.71
2019-01-25T19:10:14.762Z,1.74
2019-01-25T19:12:43.114Z,1.90
2019-01-25T19:15:15.467Z,1.55
2019-01-25T19:17:43.826Z,1.67
2019-01-25T19:20:14.032Z,1.67
2019-01-25T19:22:42.426Z,1.53
2019-01-25T19:25:12.118Z,1.56
2019-01-25T19:27:40.589Z,1.42
2019-01-25T19:30:14.744Z,1.34
2019-01-25T19:32:43.350Z,1.34
2019-01-25T19:35:13.162Z,1.53
2019-01-25T19:37:42.003Z,1.41
2019-01-25T19:40:13.394Z,1.49
2019-01-25T19:42:41.725Z,1.42
2019-01-25T19:45:12.246Z,1.33
2019-01-25T19:47:40.576Z,1.18
2019-01-25T19:50:12.887Z,1.08
2019-01-25T19:52:41.353Z,1.28
2019-01-25T19:55:13.073Z,1.32
2019-01-25T19:57:41.519Z,1.10
2019-01-25T20:00:14.442Z,1.13
2019-01-25T20:02:43.061Z,1.23
2019-01-25T20:05:14.414Z,1.26
2019-01-25T20:10:15.801Z,0.95
2019-01-25T20:12:44.286Z,1.02
2019-01-25T20:15:19.548Z,0.99
2019-01-25T20:17:46.295Z,0.82
2019-01-25T20:20:17.691Z,0.68
2019-01-25T20:22:46.295Z,0.68
2019-01-25T20:25:15.138Z,0.74
2019-01-25T20:27:43.518Z,0.77
2019-01-25T20:30:16.426Z,0.72
2019-01-25T20:32:44.847Z,0.73
2019-01-25T20:35:17.404Z,0.67
2019-01-25T20:37:45.784Z,0.61
2019-01-25T20:40:15.261Z,0.50
2019-01-25T20:42:44.278Z,0.50
2019-01-25T20:45:16.444Z,0.48
2019-01-25T20:47:44.772Z,0.38
2019-01-25T20:50:16.825Z,0.44
2019-01-25T20:52:45.157Z,0.55
2019-01-25T20:55:15.881Z,0.54
2019-01-25T20:57:44.712Z,0.66
2019-01-25T21:00:18.494Z,0.81
2019-01-25T21:02:46.891Z,0.68
2019-01-25T21:05:15.398Z,0.53
2019-01-25T21:07:43.984Z,0.51
2019-01-25T21:10:14.200Z,0.57
2019-01-25T21:12:42.665Z,0.63
2019-01-25T21:15:13.797Z,0.61
2019-01-25T21:17:42.238Z,0.60
2019-01-25T21:20:14.719Z,0.68
2019-01-25T21:22:43.082Z,0.47
2019-01-25T21:25:12.108Z,0.62
2019-01-25T21:27:40.500Z,0.53
2019-01-25T21:30:11.873Z,0.69
2019-01-25T21:32:40.332Z,0.77
2019-01-25T21:35:09.876Z,0.89
2019-01-25T21:37:38.342Z,0.75
2019-01-25T21:40:11.239Z,0.76
2019-01-25T21:42:39.544Z,0.69
2019-01-25T21:45:11.805Z,0.71
2019-01-25T21:47:40.130Z,0.57
2019-01-25T21:50:11.805Z,0.72
2019-01-25T21:52:40.245Z,0.60
2019-01-25T21:55:12.276Z,0.52
2019-01-25T21:57:40.679Z,0.49
2019-01-25T22:00:13.335Z,0.54
2019-01-25T22:02:41.701Z,0.67
2019-01-25T22:05:10.446Z,0.71
2019-01-25T22:07:39.109Z,0.73
2019-01-25T22:10:13.052Z,0.77
2019-01-25T22:12:41.819Z,0.77
2019-01-25T22:15:13.618Z,0.83
2019-01-25T22:17:41.948Z,0.89
2019-01-25T22:20:14.890Z,0.86
2019-01-25T22:22:43.321Z,0.90
2019-01-25T22:25:13.007Z,0.93
2019-01-25T22:27:42.017Z,0.82
2019-01-25T22:30:14.301Z,0.83
2019-01-25T22:32:42.923Z,0.67
2019-01-25T22:35:11.722Z,0.89
2019-01-25T22:37:40.057Z,0.79
2019-01-25T22:40:10.777Z,0.83
2019-01-25T22:42:39.146Z,0.84
2019-01-25T22:45:12.522Z,0.97
2019-01-25T22:47:40.954Z,0.78
2019-01-25T22:50:14.174Z,0.90
2019-01-25T22:52:42.587Z,0.75
2019-01-25T22:55:14.083Z,0.76
2019-01-25T22:57:42.480Z,0.83
2019-01-25T23:00:14.311Z,0.89
2019-01-25T23:02:42.747Z,0.80
2019-01-25T23:05:14.571Z,0.83
2019-01-25T23:07:42.907Z,0.89
2019-01-25T23:10:12.931Z,1.00
2019-01-25T23:12:41.261Z,0.92
2019-01-25T23:15:10.581Z,0.94
2019-01-25T23:17:39.006Z,0.95
2019-01-25T23:20:08.549Z,0.90
2019-01-25T23:22:37.029Z,0.92
2019-01-25T23:25:07.106Z,0.93
2019-01-25T23:27:35.480Z,0.91
2019-01-25T23:30:07.709Z,1.10
2019-01-25T23:32:36.070Z,1.05
2019-01-25T23:35:05.533Z,1.07
2019-01-25T23:37:37.864Z,1.06
2019-01-25T23:40:08.061Z,0.98
2019-01-25T23:42:36.411Z,1.08
2019-01-25T23:45:06.864Z,1.00
2019-01-25T23:47:35.211Z,1.06
2019-01-25T23:50:05.898Z,1.03
2019-01-25T23:52:34.297Z,1.09
2019-01-25T23:55:02.670Z,1.09
2019-01-25T23:57:31.044Z,1.12
2019-01-25T23:59:59.377Z,1.06
